createdAt,value
2023-01-31T00:01:24.582Z,101561.34
2023-01-31T00:03:54.796Z,101563.81
2023-01-31T00:06:25.302Z,101555.63
2023-01-31T00:08:54.221Z,101564.84
2023-01-31T00:11:25.754Z,101566.13
2023-01-31T00:13:54.641Z,101567.19
2023-01-31T00:16:24.087Z,101567.38
2023-01-31T00:18:52.690Z,101563.59
2023-01-31T00:21:22.525Z,101567.94
2023-01-31T00:23:51.574Z,101572.56
2023-01-31T00:26:21.321Z,101565.41
2023-01-31T00:28:52.063Z,101565.22
2023-01-31T00:31:21.265Z,101567.94
2023-01-31T00:33:50.511Z,101568.13
2023-01-31T00:36:20.275Z,101574.66
2023-01-31T00:38:50.063Z,101567.50
2023-01-31T00:41:19.054Z,101562.31
2023-01-31T00:43:46.801Z,101552.91
2023-01-31T00:46:16.171Z,101551.09
2023-01-31T00:48:44.024Z,101556.03
2023-01-31T00:51:11.647Z,101554.97
2023-01-31T00:53:39.642Z,101564.38
2023-01-31T00:56:09.843Z,101559.22
2023-01-31T00:58:39.513Z,101554.97
2023-01-31T01:01:09.273Z,101551.41
2023-01-31T01:03:39.472Z,101553.97
2023-01-31T01:06:08.514Z,101550.84
2023-01-31T01:08:37.183Z,101559.88
2023-01-31T01:11:09.084Z,101558.66
2023-01-31T01:13:37.193Z,101566.66
2023-01-31T01:16:07.086Z,101561.56
2023-01-31T01:18:36.183Z,101568.81
2023-01-31T01:21:11.491Z,101563.34
2023-01-31T01:23:40.091Z,101564.47
2023-01-31T01:26:15.215Z,101581.13
2023-01-31T01:28:43.098Z,101578.47
2023-01-31T01:31:13.139Z,101577.38
2023-01-31T01:33:40.982Z,101573.63
2023-01-31T01:36:13.216Z,101579.00
2023-01-31T01:38:41.916Z,101584.41
2023-01-31T01:41:11.312Z,101574.34
2023-01-31T01:43:44.358Z,101573.50
2023-01-31T01:46:15.191Z,101575.41
2023-01-31T01:48:45.516Z,101586.09
2023-01-31T01:51:19.283Z,101583.63
2023-01-31T01:53:51.236Z,101586.94
2023-01-31T01:56:22.048Z,101584.56
2023-01-31T01:58:55.968Z,101584.56
2023-01-31T02:01:26.111Z,101589.84
2023-01-31T02:03:54.528Z,101588.56
2023-01-31T02:06:23.658Z,101582.16
2023-01-31T02:08:51.475Z,101589.50
2023-01-31T02:11:23.670Z,101592.13
2023-01-31T02:13:54.514Z,101584.31
2023-01-31T02:16:22.352Z,101580.03
2023-01-31T02:18:51.396Z,101573.25
2023-01-31T02:21:52.329Z,101578.44
2023-01-31T02:25:01.340Z,101578.09
2023-01-31T02:28:13.742Z,101585.84
2023-01-31T02:31:19.993Z,101582.44
2023-01-31T02:33:57.775Z,101582.59
2023-01-31T02:36:34.188Z,101588.06
2023-01-31T02:39:09.731Z,101576.31
2023-01-31T02:41:44.231Z,101576.69
2023-01-31T02:44:38.571Z,101578.50
2023-01-31T02:47:20.882Z,101571.44
2023-01-31T02:49:55.945Z,101568.75
2023-01-31T02:52:33.099Z,101569.91
2023-01-31T02:55:26.913Z,101569.00
2023-01-31T02:57:58.102Z,101569.06
2023-01-31T03:00:27.028Z,101569.06
2023-01-31T03:02:54.897Z,101567.38
2023-01-31T03:05:24.401Z,101573.31
2023-01-31T03:07:55.701Z,101579.22
2023-01-31T03:10:39.302Z,101568.06
2023-01-31T03:13:22.565Z,101575.25
2023-01-31T03:16:21.360Z,101596.22
2023-01-31T03:18:58.608Z,101587.41
2023-01-31T03:21:33.869Z,101586.63
2023-01-31T03:24:03.288Z,101586.63
2023-01-31T03:26:31.115Z,101598.06
2023-01-31T03:29:02.098Z,101593.66
2023-01-31T03:31:33.909Z,101596.63
2023-01-31T03:34:05.329Z,101601.47
2023-01-31T03:36:39.943Z,101603.34
2023-01-31T03:39:18.626Z,101604.19
2023-01-31T03:41:57.610Z,101615.81
2023-01-31T03:44:35.261Z,101619.63
2023-01-31T03:47:07.936Z,101623.19
2023-01-31T03:49:37.962Z,101623.84
2023-01-31T03:52:10.186Z,101629.28
2023-01-31T03:54:42.645Z,101633.72
2023-01-31T03:57:18.479Z,101633.19
2023-01-31T03:59:53.878Z,101634.31
2023-01-31T04:02:24.548Z,101635.72
2023-01-31T04:04:56.970Z,101630.91
2023-01-31T04:07:26.175Z,101626.41
2023-01-31T04:09:53.927Z,101624.38
2023-01-31T04:12:21.611Z,101631.69
2023-01-31T04:14:49.262Z,101628.13
2023-01-31T04:17:16.945Z,101630.81
2023-01-31T04:19:44.651Z,101626.06
2023-01-31T04:22:12.805Z,101635.59
2023-01-31T04:24:41.927Z,101630.47
2023-01-31T04:27:09.968Z,101628.28
2023-01-31T04:29:37.615Z,101632.25
2023-01-31T04:32:05.881Z,101637.78
2023-01-31T04:34:34.150Z,101629.63
2023-01-31T04:37:01.899Z,101630.25
2023-01-31T04:39:29.559Z,101626.22
2023-01-31T04:41:58.653Z,101612.84
2023-01-31T04:44:26.329Z,101614.19
2023-01-31T04:46:54.149Z,101609.44
2023-01-31T04:49:21.894Z,101610.66
2023-01-31T04:51:49.565Z,101611.66
2023-01-31T04:54:19.671Z,101613.50
2023-01-31T04:56:47.661Z,101606.22
2023-01-31T04:59:16.683Z,101616.22
2023-01-31T05:01:44.346Z,101622.16
2023-01-31T05:04:12.709Z,101604.19
2023-01-31T05:06:40.380Z,101604.28
2023-01-31T05:09:08.242Z,101605.53
2023-01-31T05:11:36.344Z,101609.28
2023-01-31T05:14:04.112Z,101599.72
2023-01-31T05:16:33.138Z,101597.59
2023-01-31T05:19:01.175Z,101596.03
2023-01-31T05:21:29.015Z,101607.06
2023-01-31T05:23:56.723Z,101596.31
2023-01-31T05:26:24.432Z,101596.22
2023-01-31T05:28:52.226Z,101598.66
2023-01-31T05:31:19.966Z,101592.25
2023-01-31T05:33:49.539Z,101601.06
2023-01-31T05:36:17.209Z,101595.81
2023-01-31T05:38:44.887Z,101583.50
2023-01-31T05:41:12.831Z,101579.34
2023-01-31T05:43:40.554Z,101589.09
2023-01-31T05:46:08.268Z,101594.09
2023-01-31T05:48:36.034Z,101581.91
2023-01-31T05:51:05.462Z,101586.38
2023-01-31T05:53:33.115Z,101581.47
2023-01-31T05:56:01.469Z,101595.38
2023-01-31T05:58:29.190Z,101593.41
2023-01-31T06:00:57.436Z,101583.16
2023-01-31T06:03:25.182Z,101585.19
2023-01-31T06:05:52.871Z,101603.00
2023-01-31T06:08:22.283Z,101607.00
2023-01-31T06:10:50.107Z,101609.41
2023-01-31T06:13:17.786Z,101601.28
2023-01-31T06:15:45.947Z,101605.00
2023-01-31T06:18:14.564Z,101601.94
2023-01-31T06:20:42.263Z,101595.53
2023-01-31T06:23:09.953Z,101592.31
2023-01-31T06:25:39.059Z,101599.59
2023-01-31T06:28:06.766Z,101587.97
2023-01-31T06:30:34.853Z,101595.69
2023-01-31T06:33:02.695Z,101594.69
2023-01-31T06:35:30.894Z,101596.53
2023-01-31T06:37:58.586Z,101591.38
2023-01-31T06:40:26.518Z,101601.47
2023-01-31T06:42:55.635Z,101598.75
2023-01-31T06:45:23.596Z,101595.53
2023-01-31T06:47:51.352Z,101596.78
2023-01-31T06:50:19.629Z,101603.53
2023-01-31T06:52:47.878Z,101612.50
2023-01-31T06:55:15.908Z,101604.13
2023-01-31T06:57:50.442Z,101606.06
2023-01-31T07:00:22.373Z,101615.28
2023-01-31T07:02:50.115Z,101620.22
2023-01-31T07:05:18.356Z,101622.00
2023-01-31T07:07:46.409Z,101616.72
2023-01-31T07:10:14.465Z,101629.13
2023-01-31T07:12:42.218Z,101637.44
2023-01-31T07:15:11.336Z,101650.38
2023-01-31T07:17:44.161Z,101645.22
2023-01-31T07:20:13.052Z,101646.91
2023-01-31T07:22:40.841Z,101666.41
2023-01-31T07:25:10.818Z,101664.34
2023-01-31T07:27:38.505Z,101671.25
2023-01-31T07:30:07.534Z,101669.28
2023-01-31T07:32:35.325Z,101669.03
2023-01-31T07:35:04.702Z,101675.09
2023-01-31T07:37:32.488Z,101668.00
2023-01-31T07:40:00.282Z,101671.31
2023-01-31T07:42:29.916Z,101672.16
2023-01-31T07:44:57.619Z,101671.81
2023-01-31T07:47:25.310Z,101659.03
2023-01-31T07:49:52.997Z,101660.97
2023-01-31T07:52:22.047Z,101655.22
2023-01-31T07:54:49.880Z,101657.00
2023-01-31T07:57:17.831Z,101664.03
2023-01-31T07:59:45.699Z,101667.13
2023-01-31T08:02:32.431Z,101678.13
2023-01-31T08:05:00.771Z,101674.75
2023-01-31T08:07:30.850Z,101672.19
2023-01-31T08:09:58.566Z,101678.13
2023-01-31T08:12:26.229Z,101683.41
2023-01-31T08:14:53.884Z,101671.44
2023-01-31T08:17:21.586Z,101678.41
2023-01-31T08:19:49.235Z,101677.56
2023-01-31T08:22:16.932Z,101667.47
2023-01-31T08:24:45.998Z,101665.53
2023-01-31T08:27:13.931Z,101662.34
2023-01-31T08:29:41.622Z,101660.66
2023-01-31T08:32:09.369Z,101673.06
2023-01-31T08:34:37.107Z,101666.16
2023-01-31T08:37:04.901Z,101671.25
2023-01-31T08:39:32.736Z,101671.34
2023-01-31T08:42:01.762Z,101669.78
2023-01-31T08:44:29.502Z,101662.81
2023-01-31T08:46:59.226Z,101662.81
2023-01-31T08:49:27.120Z,101658.97
2023-01-31T08:51:54.789Z,101648.91
2023-01-31T08:54:22.512Z,101650.88
2023-01-31T08:56:50.280Z,101657.72
2023-01-31T08:59:19.320Z,101664.31
2023-01-31T09:01:48.056Z,101679.97
2023-01-31T09:04:15.722Z,101680.59
2023-01-31T09:06:43.780Z,101676.25
2023-01-31T09:09:11.864Z,101673.25
2023-01-31T09:11:39.736Z,101679.28
2023-01-31T09:14:07.526Z,101679.84
2023-01-31T09:16:36.762Z,101680.47
2023-01-31T09:19:04.581Z,101671.91
2023-01-31T09:21:32.514Z,101656.94
2023-01-31T09:24:03.828Z,101663.09
2023-01-31T09:26:32.356Z,101650.97
2023-01-31T09:29:01.503Z,101646.19
2023-01-31T09:31:30.224Z,101644.75
2023-01-31T09:33:59.512Z,101638.91
2023-01-31T09:36:27.773Z,101629.28
2023-01-31T09:38:57.004Z,101635.56
2023-01-31T09:41:31.075Z,101634.16
2023-01-31T09:44:04.157Z,101635.50
2023-01-31T09:46:37.551Z,101629.97
2023-01-31T09:49:11.693Z,101644.69
2023-01-31T09:51:40.279Z,101643.16
2023-01-31T09:54:18.344Z,101636.97
2023-01-31T09:56:55.536Z,101633.03
2023-01-31T09:59:27.217Z,101632.53
2023-01-31T10:02:04.236Z,101650.28
2023-01-31T10:04:45.869Z,101657.44
2023-01-31T10:07:18.900Z,101655.66
2023-01-31T10:09:54.855Z,101650.56
2023-01-31T10:12:26.379Z,101656.31
2023-01-31T10:14:57.022Z,101640.22
2023-01-31T10:17:29.432Z,101628.16
2023-01-31T10:20:04.076Z,101627.41
2023-01-31T10:22:39.497Z,101632.09
2023-01-31T10:25:21.055Z,101650.91
2023-01-31T10:27:53.555Z,101647.78
2023-01-31T10:30:25.569Z,101633.03
2023-01-31T10:33:00.036Z,101624.94
2023-01-31T10:35:34.448Z,101641.16
2023-01-31T10:38:07.128Z,101647.06
2023-01-31T10:40:38.847Z,101630.41
2023-01-31T10:43:17.611Z,101628.03
2023-01-31T10:45:45.555Z,101643.34
2023-01-31T10:48:17.269Z,101642.41
2023-01-31T10:51:05.171Z,101637.34
2023-01-31T10:53:46.219Z,101634.50
2023-01-31T10:56:21.198Z,101642.41
2023-01-31T10:58:49.558Z,101635.66
2023-01-31T11:01:17.298Z,101620.97
2023-01-31T11:03:56.510Z,101620.78
2023-01-31T11:06:26.174Z,101618.97
2023-01-31T11:08:58.071Z,101604.84
2023-01-31T11:11:27.806Z,101586.81
2023-01-31T11:13:59.313Z,101575.84
2023-01-31T11:16:31.101Z,101556.44
2023-01-31T11:19:00.423Z,101554.13
2023-01-31T11:21:32.251Z,101545.03
2023-01-31T11:24:04.881Z,101546.31
2023-01-31T11:26:34.599Z,101545.22
2023-01-31T11:29:08.545Z,101543.25
2023-01-31T11:31:42.834Z,101546.31
2023-01-31T11:34:21.067Z,101547.16
2023-01-31T11:36:50.459Z,101544.59
2023-01-31T11:39:28.375Z,101523.50
2023-01-31T11:41:56.741Z,101506.41
2023-01-31T11:44:24.886Z,101500.09
2023-01-31T11:46:56.394Z,101488.59
2023-01-31T11:49:30.450Z,101484.88
2023-01-31T11:52:01.614Z,101480.97
2023-01-31T11:54:32.094Z,101492.88
2023-01-31T11:57:00.933Z,101502.34
2023-01-31T11:59:30.958Z,101495.63
2023-01-31T12:02:01.244Z,101494.38
2023-01-31T12:04:33.998Z,101478.97
2023-01-31T12:07:21.327Z,101468.09
2023-01-31T12:09:49.183Z,101473.69
2023-01-31T12:12:35.768Z,101465.25
2023-01-31T12:15:05.995Z,101468.44
2023-01-31T12:17:42.945Z,101462.94
2023-01-31T12:20:28.188Z,101456.41
2023-01-31T12:23:08.089Z,101440.47
2023-01-31T12:25:52.918Z,101435.50
2023-01-31T12:28:32.351Z,101437.72
2023-01-31T12:31:19.863Z,101455.78
2023-01-31T12:34:03.708Z,101454.09
2023-01-31T12:36:44.469Z,101438.25
2023-01-31T12:39:39.095Z,101436.56
2023-01-31T12:42:24.416Z,101419.13
2023-01-31T12:45:01.989Z,101408.28
2023-01-31T12:47:50.234Z,101415.78
2023-01-31T12:50:29.860Z,101413.00
2023-01-31T12:53:26.892Z,101421.34
2023-01-31T12:56:13.443Z,101415.34
2023-01-31T12:58:51.203Z,101397.28
2023-01-31T13:01:24.315Z,101385.69
2023-01-31T13:04:07.582Z,101372.38
2023-01-31T13:06:40.713Z,101365.63
2023-01-31T13:09:14.561Z,101380.72
2023-01-31T13:11:50.041Z,101377.44
2023-01-31T13:14:22.489Z,101371.53
2023-01-31T13:16:57.078Z,101368.81
2023-01-31T13:19:29.065Z,101372.50
2023-01-31T13:22:01.194Z,101378.19
2023-01-31T13:24:34.561Z,101366.78
2023-01-31T13:27:11.208Z,101354.63
2023-01-31T13:29:44.761Z,101364.22
2023-01-31T13:32:20.334Z,101361.16
2023-01-31T13:34:53.231Z,101361.38
2023-01-31T13:37:22.196Z,101370.88
2023-01-31T13:39:54.857Z,101368.75
2023-01-31T13:42:24.262Z,101375.91
2023-01-31T13:44:52.108Z,101359.56
2023-01-31T13:47:25.454Z,101358.09
2023-01-31T13:49:57.235Z,101358.09
2023-01-31T13:52:29.478Z,101359.16
2023-01-31T13:55:01.105Z,101359.56
2023-01-31T13:57:33.151Z,101348.91
2023-01-31T14:00:07.968Z,101350.84
2023-01-31T14:02:35.895Z,101339.22
2023-01-31T14:05:09.291Z,101345.31
2023-01-31T14:07:37.073Z,101332.38
2023-01-31T14:10:32.578Z,101325.25
2023-01-31T14:13:39.799Z,101323.13
2023-01-31T14:16:38.845Z,101333.06
2023-01-31T14:19:27.349Z,101332.03
2023-01-31T14:21:58.006Z,101338.97
2023-01-31T14:25:05.157Z,101345.72
2023-01-31T14:27:40.420Z,101350.50
2023-01-31T14:30:28.338Z,101349.31
2023-01-31T14:33:06.674Z,101345.28
2023-01-31T14:35:59.170Z,101354.16
2023-01-31T14:38:44.876Z,101363.25
2023-01-31T14:41:22.247Z,101367.59
2023-01-31T14:44:05.744Z,101362.50
2023-01-31T14:46:57.264Z,101375.41
2023-01-31T14:49:46.769Z,101376.13
2023-01-31T14:52:37.277Z,101367.50
2023-01-31T14:55:28.143Z,101364.94
2023-01-31T14:57:59.855Z,101364.50
2023-01-31T15:00:31.460Z,101352.88
2023-01-31T15:03:07.005Z,101350.66
2023-01-31T15:05:49.120Z,101352.25
2023-01-31T15:08:41.082Z,101335.56
2023-01-31T15:11:14.811Z,101345.19
2023-01-31T15:13:47.245Z,101341.09
2023-01-31T15:16:26.727Z,101332.31
2023-01-31T15:19:00.769Z,101341.69
2023-01-31T15:21:32.222Z,101339.03
2023-01-31T15:24:01.940Z,101334.00
2023-01-31T15:26:32.738Z,101331.38
2023-01-31T15:29:01.622Z,101325.03
2023-01-31T15:31:34.395Z,101335.59
2023-01-31T15:34:08.299Z,101328.94
2023-01-31T15:36:45.449Z,101337.22
2023-01-31T15:39:23.558Z,101347.03
2023-01-31T15:41:51.340Z,101344.50
2023-01-31T15:44:21.157Z,101352.81
2023-01-31T15:46:50.087Z,101358.22
2023-01-31T15:49:38.543Z,101350.41
2023-01-31T15:52:14.926Z,101355.69
2023-01-31T15:54:52.736Z,101358.00
2023-01-31T15:57:22.928Z,101357.13
2023-01-31T15:59:50.663Z,101354.63
2023-01-31T16:02:44.607Z,101361.38
2023-01-31T16:05:50.682Z,101363.47
2023-01-31T16:08:30.645Z,101357.78
2023-01-31T16:10:59.050Z,101364.34
2023-01-31T16:13:27.984Z,101365.19
2023-01-31T16:15:56.607Z,101359.69
2023-01-31T16:18:25.848Z,101349.34
2023-01-31T16:20:55.213Z,101353.78
2023-01-31T16:23:30.985Z,101353.56
2023-01-31T16:26:04.937Z,101339.84
2023-01-31T16:28:39.021Z,101344.88
2023-01-31T16:31:10.128Z,101354.75
2023-01-31T16:33:41.765Z,101342.25
2023-01-31T16:36:16.580Z,101342.78
2023-01-31T16:38:57.172Z,101347.34
2023-01-31T16:41:41.337Z,101343.53
2023-01-31T16:44:14.682Z,101352.50
2023-01-31T16:46:45.416Z,101349.66
2023-01-31T16:49:20.713Z,101346.81
2023-01-31T16:51:49.196Z,101332.22
2023-01-31T16:54:24.006Z,101339.94
2023-01-31T16:57:21.306Z,101344.69
2023-01-31T16:59:50.803Z,101339.09
2023-01-31T17:02:26.777Z,101347.97
2023-01-31T17:04:58.049Z,101338.59
2023-01-31T17:07:30.194Z,101347.22
2023-01-31T17:10:01.322Z,101349.47
2023-01-31T17:12:30.449Z,101343.22
2023-01-31T17:15:02.466Z,101346.06
2023-01-31T17:17:34.090Z,101338.34
2023-01-31T17:20:02.147Z,101341.53
2023-01-31T17:22:30.495Z,101338.91
2023-01-31T17:24:59.667Z,101327.38
2023-01-31T17:27:27.425Z,101343.22
2023-01-31T17:29:55.138Z,101337.09
2023-01-31T17:32:23.020Z,101345.56
2023-01-31T17:34:50.864Z,101339.09
2023-01-31T17:37:26.792Z,101327.91
2023-01-31T17:40:00.977Z,101329.50
2023-01-31T17:42:28.652Z,101326.00
2023-01-31T17:44:56.348Z,101330.22
2023-01-31T17:47:26.880Z,101325.59
2023-01-31T17:49:54.855Z,101321.47
2023-01-31T17:52:22.581Z,101332.03
2023-01-31T17:54:50.378Z,101327.44
2023-01-31T17:57:19.570Z,101332.03
2023-01-31T17:59:47.252Z,101336.97
2023-01-31T18:02:14.995Z,101339.59
2023-01-31T18:04:42.684Z,101342.56
2023-01-31T18:07:10.633Z,101332.44
2023-01-31T18:09:38.617Z,101338.91
2023-01-31T18:12:06.638Z,101323.06
2023-01-31T18:14:35.742Z,101343.22
2023-01-31T18:17:03.535Z,101335.06
2023-01-31T18:19:31.378Z,101333.47
2023-01-31T18:21:59.629Z,101330.31
2023-01-31T18:24:27.437Z,101333.91
2023-01-31T18:26:56.888Z,101331.88
2023-01-31T18:29:26.261Z,101322.06
2023-01-31T18:31:57.863Z,101327.75
2023-01-31T18:34:26.147Z,101338.75
2023-01-31T18:36:53.851Z,101337.31
2023-01-31T18:39:21.629Z,101340.25
2023-01-31T18:41:49.245Z,101345.53
2023-01-31T18:44:16.942Z,101349.31
2023-01-31T18:46:47.195Z,101345.72
2023-01-31T18:49:17.850Z,101336.84
2023-01-31T18:51:46.708Z,101341.59
2023-01-31T18:54:14.364Z,101333.44
2023-01-31T18:56:42.134Z,101325.34
2023-01-31T18:59:10.127Z,101327.97
2023-01-31T19:01:40.620Z,101324.81
2023-01-31T19:04:09.974Z,101328.72
2023-01-31T19:06:40.945Z,101333.03
2023-01-31T19:09:10.011Z,101338.19
2023-01-31T19:11:38.136Z,101344.78
2023-01-31T19:14:07.476Z,101348.91
2023-01-31T19:16:39.817Z,101345.09
2023-01-31T19:19:07.973Z,101344.25
2023-01-31T19:21:37.334Z,101340.53
2023-01-31T19:24:08.321Z,101339.94
2023-01-31T19:26:36.897Z,101339.94
2023-01-31T19:29:08.079Z,101328.41
2023-01-31T19:31:37.164Z,101328.19
2023-01-31T19:34:06.622Z,101333.25
2023-01-31T19:36:36.509Z,101334.72
2023-01-31T19:39:07.825Z,101334.97
2023-01-31T19:41:38.379Z,101340.44
2023-01-31T19:44:06.291Z,101346.56
2023-01-31T19:46:36.878Z,101336.13
2023-01-31T19:49:04.974Z,101331.56
2023-01-31T19:51:35.425Z,101323.44
2023-01-31T19:54:04.021Z,101323.94
2023-01-31T19:56:35.496Z,101331.66
2023-01-31T19:59:06.411Z,101330.72
2023-01-31T20:01:34.390Z,101337.03
2023-01-31T20:04:04.131Z,101337.59
2023-01-31T20:09:45.602Z,101338.09
2023-01-31T20:12:14.659Z,101335.66
2023-01-31T20:14:48.746Z,101327.63
2023-01-31T20:17:16.551Z,101325.84
2023-01-31T20:19:46.341Z,101318.16
2023-01-31T20:22:15.656Z,101322.81
2023-01-31T20:24:46.481Z,101324.41
2023-01-31T20:27:19.183Z,101318.66
2023-01-31T20:29:47.030Z,101313.59
2023-01-31T20:32:17.233Z,101311.91
2023-01-31T20:34:45.059Z,101323.09
2023-01-31T20:37:12.799Z,101314.13
2023-01-31T20:39:40.655Z,101318.47
2023-01-31T20:42:10.555Z,101320.16
2023-01-31T20:44:39.765Z,101305.97
2023-01-31T20:47:07.732Z,101312.81
2023-01-31T20:49:35.771Z,101312.72
2023-01-31T20:52:03.508Z,101302.03
2023-01-31T20:54:31.466Z,101298.56
2023-01-31T20:56:59.246Z,101301.41
2023-01-31T20:59:27.204Z,101298.84
2023-01-31T21:01:56.416Z,101300.72
2023-01-31T21:04:24.117Z,101303.59
2023-01-31T21:06:51.806Z,101305.63
2023-01-31T21:09:19.821Z,101315.44
2023-01-31T21:11:48.657Z,101336.66
2023-01-31T21:14:16.376Z,101344.47
2023-01-31T21:16:43.998Z,101332.97
2023-01-31T21:19:13.474Z,101345.72
2023-01-31T21:21:41.213Z,101343.59
2023-01-31T21:24:09.516Z,101338.19
2023-01-31T21:26:37.513Z,101339.78
2023-01-31T21:29:05.431Z,101336.94
2023-01-31T21:31:34.008Z,101335.25
2023-01-31T21:34:05.502Z,101331.75
2023-01-31T21:36:36.220Z,101332.50
2023-01-31T21:39:04.303Z,101339.44
2023-01-31T21:41:49.781Z,101349.69
2023-01-31T21:44:17.687Z,101355.09
2023-01-31T21:46:49.462Z,101351.59
2023-01-31T21:49:17.108Z,101347.78
2023-01-31T21:51:46.150Z,101345.16
2023-01-31T21:54:13.971Z,101330.00
2023-01-31T21:56:41.755Z,101324.72
2023-01-31T21:59:09.585Z,101318.28
2023-01-31T22:01:37.549Z,101313.63
2023-01-31T22:04:05.406Z,101305.56
2023-01-31T22:06:37.466Z,101296.00
2023-01-31T22:09:08.890Z,101296.59
2023-01-31T22:11:37.175Z,101294.16
2023-01-31T22:14:07.489Z,101301.28
2023-01-31T22:16:35.577Z,101290.72
2023-01-31T22:19:04.264Z,101286.88
2023-01-31T22:21:33.567Z,101289.41
2023-01-31T22:24:03.518Z,101289.50
2023-01-31T22:26:34.649Z,101298.06
2023-01-31T22:29:04.726Z,101297.44
2023-01-31T22:31:33.668Z,101297.22
2023-01-31T22:34:02.005Z,101289.19
2023-01-31T22:36:29.861Z,101276.94
2023-01-31T22:38:57.591Z,101282.22
2023-01-31T22:41:25.528Z,101273.09
2023-01-31T22:43:55.001Z,101260.00
2023-01-31T22:46:24.440Z,101251.94
2023-01-31T22:48:54.079Z,101259.28
2023-01-31T22:51:24.070Z,101259.81
2023-01-31T22:53:51.836Z,101250.56
2023-01-31T22:56:21.549Z,101240.00
2023-01-31T22:58:49.607Z,101238.09
2023-01-31T23:01:21.639Z,101245.06
2023-01-31T23:03:50.111Z,101239.53
2023-01-31T23:06:18.981Z,101250.09
2023-01-31T23:08:46.768Z,101258.88
2023-01-31T23:11:17.276Z,101251.91
2023-01-31T23:13:45.434Z,101261.28
2023-01-31T23:16:16.830Z,101263.00
2023-01-31T23:18:46.410Z,101262.41
2023-01-31T23:21:16.000Z,101257.47
2023-01-31T23:23:43.989Z,101253.25
2023-01-31T23:26:13.030Z,101255.16
2023-01-31T23:28:40.766Z,101254.94
2023-01-31T23:31:08.938Z,101264.56
2023-01-31T23:33:36.785Z,101254.00
2023-01-31T23:36:06.936Z,101247.34
2023-01-31T23:38:34.636Z,101243.97
2023-01-31T23:41:04.339Z,101255.69
2023-01-31T23:43:32.055Z,101250.63
2023-01-31T23:45:59.708Z,101254.09
2023-01-31T23:48:27.407Z,101238.84
2023-01-31T23:50:55.070Z,101230.22
2023-01-31T23:53:24.489Z,101230.91
2023-01-31T23:55:53.627Z,101225.09
2023-01-31T23:58:21.354Z,101219.31
